sensor_id;sensor_type;location;lat;lon;timestamp;P1;durP1;ratioP1;P2;durP2;ratioP2
18576;SDS011;9418;52.694;13.294;2022-07-23T00:00:28;7.13;;;5.83;;
18576;SDS011;9418;52.694;13.294;2022-07-23T00:02:55;6.93;;;6.13;;
18576;SDS011;9418;52.694;13.294;2022-07-23T00:05:21;7.57;;;5.67;;
18576;SDS011;9418;52.694;13.294;2022-07-23T00:07:48;6.30;;;5.17;;
18576;SDS011;9418;52.694;13.294;2022-07-23T00:10:15;7.27;;;6.57;;
18576;SDS011;9418;52.694;13.294;2022-07-23T00:12:41;6.13;;;5.63;;
18576;SDS011;9418;52.694;13.294;2022-07-23T00:15:09;6.10;;;5.50;;
18576;SDS011;9418;52.694;13.294;2022-07-23T00:17:37;5.77;;;5.27;;
18576;SDS011;9418;52.694;13.294;2022-07-23T00:20:04;5.73;;;5.33;;
18576;SDS011;9418;52.694;13.294;2022-07-23T00:22:31;5.87;;;5.37;;
18576;SDS011;9418;52.694;13.294;2022-07-23T00:24:58;6.37;;;5.77;;
18576;SDS011;9418;52.694;13.294;2022-07-23T00:27:25;8.47;;;6.00;;
18576;SDS011;9418;52.694;13.294;2022-07-23T00:29:51;7.23;;;4.90;;
18576;SDS011;9418;52.694;13.294;2022-07-23T00:32:18;9.50;;;5.70;;
18576;SDS011;9418;52.694;13.294;2022-07-23T00:34:46;6.43;;;5.73;;
18576;SDS011;9418;52.694;13.294;2022-07-23T00:37:12;6.00;;;5.40;;
18576;SDS011;9418;52.694;13.294;2022-07-23T00:39:39;8.70;;;6.03;;
18576;SDS011;9418;52.694;13.294;2022-07-23T00:42:05;6.47;;;5.97;;
18576;SDS011;9418;52.694;13.294;2022-07-23T00:44:32;6.10;;;5.50;;
18576;SDS011;9418;52.694;13.294;2022-07-23T00:46:59;6.27;;;5.63;;
18576;SDS011;9418;52.694;13.294;2022-07-23T00:49:26;6.37;;;5.80;;
18576;SDS011;9418;52.694;13.294;2022-07-23T00:51:55;9.50;;;5.60;;
18576;SDS011;9418;52.694;13.294;2022-07-23T00:54:23;7.00;;;5.53;;
18576;SDS011;9418;52.694;13.294;2022-07-23T00:56:51;6.57;;;5.87;;
18576;SDS011;9418;52.694;13.294;2022-07-23T00:59:19;5.60;;;5.20;;
18576;SDS011;9418;52.694;13.294;2022-07-23T01:01:46;6.77;;;6.10;;
18576;SDS011;9418;52.694;13.294;2022-07-23T01:04:14;6.53;;;5.70;;
18576;SDS011;9418;52.694;13.294;2022-07-23T01:06:41;7.30;;;5.50;;
18576;SDS011;9418;52.694;13.294;2022-07-23T01:09:11;7.73;;;6.17;;
18576;SDS011;9418;52.694;13.294;2022-07-23T01:11:38;6.53;;;5.90;;
18576;SDS011;9418;52.694;13.294;2022-07-23T01:14:08;6.40;;;5.90;;
18576;SDS011;9418;52.694;13.294;2022-07-23T01:16:39;6.73;;;5.80;;
18576;SDS011;9418;52.694;13.294;2022-07-23T01:19:06;5.37;;;4.97;;
18576;SDS011;9418;52.694;13.294;2022-07-23T01:21:35;6.60;;;5.87;;
18576;SDS011;9418;52.694;13.294;2022-07-23T01:24:04;6.50;;;5.90;;
18576;SDS011;9418;52.694;13.294;2022-07-23T01:26:31;6.43;;;5.77;;
18576;SDS011;9418;52.694;13.294;2022-07-23T01:28:58;9.90;;;6.80;;
18576;SDS011;9418;52.694;13.294;2022-07-23T01:31:25;7.57;;;5.57;;
18576;SDS011;9418;52.694;13.294;2022-07-23T01:33:52;5.97;;;5.37;;
18576;SDS011;9418;52.694;13.294;2022-07-23T01:36:18;6.60;;;6.10;;
18576;SDS011;9418;52.694;13.294;2022-07-23T01:38:45;6.57;;;5.90;;
18576;SDS011;9418;52.694;13.294;2022-07-23T01:41:13;4.90;;;4.60;;
18576;SDS011;9418;52.694;13.294;2022-07-23T01:43:39;8.70;;;5.27;;
18576;SDS011;9418;52.694;13.294;2022-07-23T01:46:06;6.17;;;5.20;;
18576;SDS011;9418;52.694;13.294;2022-07-23T01:48:33;9.03;;;5.67;;
18576;SDS011;9418;52.694;13.294;2022-07-23T01:50:59;6.63;;;6.13;;
18576;SDS011;9418;52.694;13.294;2022-07-23T01:53:26;7.00;;;6.40;;
18576;SDS011;9418;52.694;13.294;2022-07-23T01:55:52;5.97;;;5.47;;
18576;SDS011;9418;52.694;13.294;2022-07-23T01:58:20;5.90;;;5.40;;
18576;SDS011;9418;52.694;13.294;2022-07-23T02:00:47;5.80;;;5.40;;
18576;SDS011;9418;52.694;13.294;2022-07-23T02:03:13;7.20;;;5.40;;
18576;SDS011;9418;52.694;13.294;2022-07-23T02:05:40;7.73;;;5.97;;
18576;SDS011;9418;52.694;13.294;2022-07-23T02:08:07;5.43;;;5.03;;
18576;SDS011;9418;52.694;13.294;2022-07-23T02:10:33;8.27;;;5.47;;
18576;SDS011;9418;52.694;13.294;2022-07-23T02:13:00;6.43;;;5.10;;
18576;SDS011;9418;52.694;13.294;2022-07-23T02:15:28;7.10;;;6.23;;
18576;SDS011;9418;52.694;13.294;2022-07-23T02:17:55;5.87;;;4.80;;
18576;SDS011;9418;52.694;13.294;2022-07-23T02:20:21;11.27;;;5.97;;
18576;SDS011;9418;52.694;13.294;2022-07-23T02:22:48;6.23;;;5.63;;
18576;SDS011;9418;52.694;13.294;2022-07-23T02:25:15;7.03;;;5.23;;
18576;SDS011;9418;52.694;13.294;2022-07-23T02:27:41;5.70;;;4.63;;
18576;SDS011;9418;52.694;13.294;2022-07-23T02:30:08;7.83;;;5.20;;
18576;SDS011;9418;52.694;13.294;2022-07-23T02:32:37;6.43;;;5.17;;
18576;SDS011;9418;52.694;13.294;2022-07-23T02:35:05;6.90;;;4.60;;
18576;SDS011;9418;52.694;13.294;2022-07-23T02:37:32;8.30;;;4.63;;
18576;SDS011;9418;52.694;13.294;2022-07-23T02:39:59;4.90;;;4.50;;
18576;SDS011;9418;52.694;13.294;2022-07-23T02:42:25;6.00;;;4.80;;
18576;SDS011;9418;52.694;13.294;2022-07-23T02:44:52;5.67;;;4.27;;
18576;SDS011;9418;52.694;13.294;2022-07-23T02:47:18;7.63;;;4.07;;
18576;SDS011;9418;52.694;13.294;2022-07-23T02:49:46;6.17;;;4.23;;
18576;SDS011;9418;52.694;13.294;2022-07-23T02:52:13;9.53;;;4.50;;
18576;SDS011;9418;52.694;13.294;2022-07-23T02:54:39;5.87;;;4.53;;
18576;SDS011;9418;52.694;13.294;2022-07-23T02:57:06;5.17;;;4.20;;
18576;SDS011;9418;52.694;13.294;2022-07-23T02:59:32;8.20;;;4.53;;
18576;SDS011;9418;52.694;13.294;2022-07-23T03:01:59;5.53;;;4.33;;
18576;SDS011;9418;52.694;13.294;2022-07-23T03:04:26;5.50;;;3.43;;
18576;SDS011;9418;52.694;13.294;2022-07-23T03:06:53;6.70;;;3.83;;
18576;SDS011;9418;52.694;13.294;2022-07-23T03:09:20;6.60;;;4.67;;
18576;SDS011;9418;52.694;13.294;2022-07-23T03:11:47;5.00;;;4.20;;
18576;SDS011;9418;52.694;13.294;2022-07-23T03:14:13;8.80;;;4.20;;
18576;SDS011;9418;52.694;13.294;2022-07-23T03:16:41;5.17;;;4.20;;
18576;SDS011;9418;52.694;13.294;2022-07-23T03:19:08;5.30;;;4.30;;
18576;SDS011;9418;52.694;13.294;2022-07-23T03:21:34;8.03;;;4.27;;
18576;SDS011;9418;52.694;13.294;2022-07-23T03:24:06;6.03;;;4.03;;
18576;SDS011;9418;52.694;13.294;2022-07-23T03:26:33;6.90;;;4.37;;
18576;SDS011;9418;52.694;13.294;2022-07-23T03:28:59;4.77;;;3.33;;
18576;SDS011;9418;52.694;13.294;2022-07-23T03:31:28;9.03;;;3.63;;
18576;SDS011;9418;52.694;13.294;2022-07-23T03:33:55;4.80;;;3.27;;
18576;SDS011;9418;52.694;13.294;2022-07-23T03:36:21;5.33;;;3.00;;
18576;SDS011;9418;52.694;13.294;2022-07-23T03:38:48;3.67;;;3.37;;
18576;SDS011;9418;52.694;13.294;2022-07-23T03:41:17;4.07;;;3.50;;
18576;SDS011;9418;52.694;13.294;2022-07-23T03:43:43;4.47;;;3.27;;
18576;SDS011;9418;52.694;13.294;2022-07-23T03:46:10;3.30;;;3.00;;
18576;SDS011;9418;52.694;13.294;2022-07-23T03:48:36;7.57;;;3.17;;
18576;SDS011;9418;52.694;13.294;2022-07-23T03:51:03;5.97;;;2.63;;
18576;SDS011;9418;52.694;13.294;2022-07-23T03:53:30;4.40;;;2.53;;
18576;SDS011;9418;52.694;13.294;2022-07-23T03:55:57;7.10;;;2.87;;
18576;SDS011;9418;52.694;13.294;2022-07-23T03:58:25;3.90;;;2.43;;
18576;SDS011;9418;52.694;13.294;2022-07-23T04:00:51;4.33;;;2.40;;
18576;SDS011;9418;52.694;13.294;2022-07-23T04:03:18;4.20;;;3.03;;
18576;SDS011;9418;52.694;13.294;2022-07-23T04:05:44;5.37;;;2.40;;
18576;SDS011;9418;52.694;13.294;2022-07-23T04:08:11;4.17;;;2.63;;
18576;SDS011;9418;52.694;13.294;2022-07-23T04:10:38;4.53;;;2.30;;
18576;SDS011;9418;52.694;13.294;2022-07-23T04:13:04;2.60;;;2.40;;
18576;SDS011;9418;52.694;13.294;2022-07-23T04:15:32;4.97;;;2.60;;
18576;SDS011;9418;52.694;13.294;2022-07-23T04:17:58;4.80;;;2.60;;
18576;SDS011;9418;52.694;13.294;2022-07-23T04:20:25;4.60;;;2.63;;
18576;SDS011;9418;52.694;13.294;2022-07-23T04:22:52;6.37;;;2.57;;
18576;SDS011;9418;52.694;13.294;2022-07-23T04:25:18;8.70;;;2.60;;
18576;SDS011;9418;52.694;13.294;2022-07-23T04:27:45;2.07;;;1.90;;
18576;SDS011;9418;52.694;13.294;2022-07-23T04:30:11;6.93;;;2.40;;
18576;SDS011;9418;52.694;13.294;2022-07-23T04:32:39;6.60;;;2.90;;
18576;SDS011;9418;52.694;13.294;2022-07-23T04:35:06;4.50;;;2.60;;
18576;SDS011;9418;52.694;13.294;2022-07-23T04:37:33;5.30;;;3.17;;
18576;SDS011;9418;52.694;13.294;2022-07-23T04:40:00;5.13;;;3.27;;
18576;SDS011;9418;52.694;13.294;2022-07-23T04:42:26;6.50;;;2.33;;
18576;SDS011;9418;52.694;13.294;2022-07-23T04:44:53;6.47;;;3.33;;
18576;SDS011;9418;52.694;13.294;2022-07-23T04:47:19;6.10;;;2.80;;
18576;SDS011;9418;52.694;13.294;2022-07-23T04:49:47;9.27;;;2.83;;
18576;SDS011;9418;52.694;13.294;2022-07-23T04:52:14;7.05;;;2.10;;
18576;SDS011;9418;52.694;13.294;2022-07-23T04:54:41;7.40;;;2.40;;
18576;SDS011;9418;52.694;13.294;2022-07-23T04:57:07;4.23;;;2.10;;
18576;SDS011;9418;52.694;13.294;2022-07-23T04:59:34;6.20;;;3.40;;
18576;SDS011;9418;52.694;13.294;2022-07-23T05:02:00;4.20;;;2.43;;
18576;SDS011;9418;52.694;13.294;2022-07-23T05:04:27;14.30;;;3.00;;
18576;SDS011;9418;52.694;13.294;2022-07-23T05:06:55;2.83;;;2.60;;
18576;SDS011;9418;52.694;13.294;2022-07-23T05:09:21;6.73;;;3.30;;
18576;SDS011;9418;52.694;13.294;2022-07-23T05:11:48;5.80;;;2.70;;
18576;SDS011;9418;52.694;13.294;2022-07-23T05:14:14;4.60;;;2.60;;
18576;SDS011;9418;52.694;13.294;2022-07-23T05:16:41;6.33;;;2.70;;
18576;SDS011;9418;52.694;13.294;2022-07-23T05:19:08;4.73;;;2.60;;
18576;SDS011;9418;52.694;13.294;2022-07-23T05:21:34;6.23;;;3.43;;
18576;SDS011;9418;52.694;13.294;2022-07-23T05:24:02;4.57;;;3.00;;
18576;SDS011;9418;52.694;13.294;2022-07-23T05:26:29;3.63;;;3.27;;
18576;SDS011;9418;52.694;13.294;2022-07-23T05:28:56;4.37;;;3.27;;
18576;SDS011;9418;52.694;13.294;2022-07-23T05:31:22;3.67;;;3.20;;
18576;SDS011;9418;52.694;13.294;2022-07-23T05:33:49;6.90;;;3.50;;
18576;SDS011;9418;52.694;13.294;2022-07-23T05:36:15;4.77;;;3.17;;
18576;SDS011;9418;52.694;13.294;2022-07-23T05:38:42;9.93;;;3.20;;
18576;SDS011;9418;52.694;13.294;2022-07-23T05:41:10;4.83;;;3.00;;
18576;SDS011;9418;52.694;13.294;2022-07-23T05:43:36;3.63;;;3.33;;
18576;SDS011;9418;52.694;13.294;2022-07-23T05:46:03;5.90;;;2.90;;
18576;SDS011;9418;52.694;13.294;2022-07-23T05:48:30;3.70;;;3.10;;
18576;SDS011;9418;52.694;13.294;2022-07-23T05:50:57;8.60;;;3.20;;
18576;SDS011;9418;52.694;13.294;2022-07-23T05:53:23;5.53;;;3.10;;
18576;SDS011;9418;52.694;13.294;2022-07-23T05:55:50;8.03;;;3.50;;
18576;SDS011;9418;52.694;13.294;2022-07-23T05:58:18;4.60;;;3.20;;
18576;SDS011;9418;52.694;13.294;2022-07-23T06:00:44;5.37;;;3.30;;
18576;SDS011;9418;52.694;13.294;2022-07-23T06:03:11;4.93;;;3.90;;
18576;SDS011;9418;52.694;13.294;2022-07-23T06:05:37;8.03;;;3.43;;
18576;SDS011;9418;52.694;13.294;2022-07-23T06:08:04;7.33;;;3.43;;
18576;SDS011;9418;52.694;13.294;2022-07-23T06:10:31;6.20;;;3.30;;
18576;SDS011;9418;52.694;13.294;2022-07-23T06:12:57;6.80;;;3.07;;
18576;SDS011;9418;52.694;13.294;2022-07-23T06:15:25;6.87;;;3.27;;
18576;SDS011;9418;52.694;13.294;2022-07-23T06:17:52;7.20;;;3.77;;
18576;SDS011;9418;52.694;13.294;2022-07-23T06:20:19;6.80;;;3.40;;
18576;SDS011;9418;52.694;13.294;2022-07-23T06:22:45;5.97;;;3.30;;
18576;SDS011;9418;52.694;13.294;2022-07-23T06:25:12;9.17;;;4.17;;
18576;SDS011;9418;52.694;13.294;2022-07-23T06:27:39;5.17;;;3.83;;
18576;SDS011;9418;52.694;13.294;2022-07-23T06:30:06;5.43;;;3.13;;
18576;SDS011;9418;52.694;13.294;2022-07-23T06:32:36;6.97;;;4.00;;
18576;SDS011;9418;52.694;13.294;2022-07-23T06:35:03;5.40;;;3.30;;
18576;SDS011;9418;52.694;13.294;2022-07-23T06:37:30;4.00;;;3.47;;
18576;SDS011;9418;52.694;13.294;2022-07-23T06:39:56;5.70;;;3.50;;
18576;SDS011;9418;52.694;13.294;2022-07-23T06:42:23;3.90;;;2.87;;
18576;SDS011;9418;52.694;13.294;2022-07-23T06:44:50;5.53;;;3.40;;
18576;SDS011;9418;52.694;13.294;2022-07-23T06:47:16;5.53;;;3.27;;
18576;SDS011;9418;52.694;13.294;2022-07-23T06:49:44;4.53;;;3.50;;
18576;SDS011;9418;52.694;13.294;2022-07-23T06:52:11;4.40;;;3.93;;
18576;SDS011;9418;52.694;13.294;2022-07-23T06:54:37;5.43;;;3.57;;
18576;SDS011;9418;52.694;13.294;2022-07-23T06:57:04;8.67;;;3.40;;
18576;SDS011;9418;52.694;13.294;2022-07-23T06:59:30;5.70;;;4.30;;
18576;SDS011;9418;52.694;13.294;2022-07-23T07:01:58;5.60;;;3.93;;
18576;SDS011;9418;52.694;13.294;2022-07-23T07:04:24;8.17;;;3.50;;
18576;SDS011;9418;52.694;13.294;2022-07-23T07:06:52;6.77;;;3.17;;
18576;SDS011;9418;52.694;13.294;2022-07-23T07:09:19;2.90;;;2.70;;
18576;SDS011;9418;52.694;13.294;2022-07-23T07:11:45;6.90;;;4.03;;
18576;SDS011;9418;52.694;13.294;2022-07-23T07:14:12;5.17;;;3.70;;
18576;SDS011;9418;52.694;13.294;2022-07-23T07:16:38;5.57;;;3.57;;
18576;SDS011;9418;52.694;13.294;2022-07-23T07:19:05;5.47;;;3.47;;
18576;SDS011;9418;52.694;13.294;2022-07-23T07:21:31;4.37;;;3.10;;
18576;SDS011;9418;52.694;13.294;2022-07-23T07:23:59;3.70;;;3.40;;
18576;SDS011;9418;52.694;13.294;2022-07-23T07:26:27;8.23;;;3.33;;
18576;SDS011;9418;52.694;13.294;2022-07-23T07:28:53;4.50;;;3.60;;
18576;SDS011;9418;52.694;13.294;2022-07-23T07:31:20;5.13;;;2.53;;
18576;SDS011;9418;52.694;13.294;2022-07-23T07:33:46;5.00;;;2.93;;
18576;SDS011;9418;52.694;13.294;2022-07-23T07:36:13;5.33;;;2.87;;
18576;SDS011;9418;52.694;13.294;2022-07-23T07:38:40;4.77;;;3.63;;
18576;SDS011;9418;52.694;13.294;2022-07-23T07:41:08;4.30;;;3.27;;
18576;SDS011;9418;52.694;13.294;2022-07-23T07:43:35;2.97;;;2.77;;
18576;SDS011;9418;52.694;13.294;2022-07-23T07:46:01;3.90;;;2.50;;
18576;SDS011;9418;52.694;13.294;2022-07-23T07:48:28;4.13;;;2.40;;
18576;SDS011;9418;52.694;13.294;2022-07-23T07:50:55;4.80;;;2.43;;
18576;SDS011;9418;52.694;13.294;2022-07-23T07:53:21;3.60;;;2.50;;
18576;SDS011;9418;52.694;13.294;2022-07-23T07:55:48;4.80;;;2.43;;
18576;SDS011;9418;52.694;13.294;2022-07-23T07:58:16;3.47;;;1.97;;
18576;SDS011;9418;52.694;13.294;2022-07-23T08:00:42;6.07;;;2.23;;
18576;SDS011;9418;52.694;13.294;2022-07-23T08:03:09;3.83;;;2.70;;
18576;SDS011;9418;52.694;13.294;2022-07-23T08:05:36;3.97;;;2.20;;
18576;SDS011;9418;52.694;13.294;2022-07-23T08:08:02;4.30;;;2.40;;
18576;SDS011;9418;52.694;13.294;2022-07-23T08:10:29;4.07;;;2.67;;
18576;SDS011;9418;52.694;13.294;2022-07-23T08:12:57;2.50;;;1.70;;
18576;SDS011;9418;52.694;13.294;2022-07-23T08:15:27;3.37;;;2.40;;
18576;SDS011;9418;52.694;13.294;2022-07-23T08:17:55;5.07;;;2.27;;
18576;SDS011;9418;52.694;13.294;2022-07-23T08:20:22;5.03;;;3.17;;
18576;SDS011;9418;52.694;13.294;2022-07-23T08:22:51;12.03;;;2.90;;
18576;SDS011;9418;52.694;13.294;2022-07-23T08:25:20;2.63;;;2.00;;
18576;SDS011;9418;52.694;13.294;2022-07-23T08:27:48;4.20;;;2.40;;
18576;SDS011;9418;52.694;13.294;2022-07-23T08:30:15;3.83;;;2.63;;
18576;SDS011;9418;52.694;13.294;2022-07-23T08:32:55;5.07;;;2.37;;
18576;SDS011;9418;52.694;13.294;2022-07-23T08:35:24;3.53;;;2.63;;
18576;SDS011;9418;52.694;13.294;2022-07-23T08:37:52;6.50;;;2.50;;
18576;SDS011;9418;52.694;13.294;2022-07-23T08:40:19;4.50;;;2.43;;
18576;SDS011;9418;52.694;13.294;2022-07-23T08:42:46;2.87;;;2.53;;
18576;SDS011;9418;52.694;13.294;2022-07-23T08:45:15;4.33;;;2.27;;
18576;SDS011;9418;52.694;13.294;2022-07-23T08:47:43;3.57;;;1.97;;
18576;SDS011;9418;52.694;13.294;2022-07-23T08:50:12;2.60;;;1.70;;
18576;SDS011;9418;52.694;13.294;2022-07-23T08:52:39;5.00;;;2.10;;
18576;SDS011;9418;52.694;13.294;2022-07-23T08:55:07;4.90;;;2.27;;
18576;SDS011;9418;52.694;13.294;2022-07-23T08:57:34;4.83;;;2.80;;
18576;SDS011;9418;52.694;13.294;2022-07-23T09:00:02;4.57;;;2.20;;
18576;SDS011;9418;52.694;13.294;2022-07-23T09:02:31;3.73;;;2.30;;
18576;SDS011;9418;52.694;13.294;2022-07-23T09:05:04;5.53;;;2.33;;
18576;SDS011;9418;52.694;13.294;2022-07-23T09:07:32;4.33;;;2.53;;
18576;SDS011;9418;52.694;13.294;2022-07-23T09:10:08;6.30;;;2.60;;
18576;SDS011;9418;52.694;13.294;2022-07-23T09:12:37;4.30;;;2.33;;
18576;SDS011;9418;52.694;13.294;2022-07-23T09:15:04;3.97;;;2.30;;
18576;SDS011;9418;52.694;13.294;2022-07-23T09:17:39;2.60;;;2.40;;
18576;SDS011;9418;52.694;13.294;2022-07-23T09:20:09;5.87;;;2.40;;
18576;SDS011;9418;52.694;13.294;2022-07-23T09:22:38;9.87;;;2.70;;
18576;SDS011;9418;52.694;13.294;2022-07-23T09:25:07;7.53;;;2.50;;
18576;SDS011;9418;52.694;13.294;2022-07-23T09:27:46;6.50;;;2.57;;
18576;SDS011;9418;52.694;13.294;2022-07-23T09:30:14;3.00;;;2.80;;
18576;SDS011;9418;52.694;13.294;2022-07-23T09:32:41;4.73;;;2.80;;
18576;SDS011;9418;52.694;13.294;2022-07-23T09:35:08;5.27;;;2.50;;
18576;SDS011;9418;52.694;13.294;2022-07-23T09:37:35;4.80;;;2.20;;
18576;SDS011;9418;52.694;13.294;2022-07-23T09:40:06;5.50;;;3.13;;
18576;SDS011;9418;52.694;13.294;2022-07-23T09:42:36;9.10;;;3.63;;
18576;SDS011;9418;52.694;13.294;2022-07-23T09:45:03;5.13;;;2.50;;
18576;SDS011;9418;52.694;13.294;2022-07-23T09:47:37;5.67;;;3.03;;
18576;SDS011;9418;52.694;13.294;2022-07-23T09:50:04;9.40;;;3.40;;
18576;SDS011;9418;52.694;13.294;2022-07-23T09:52:34;5.30;;;3.43;;
18576;SDS011;9418;52.694;13.294;2022-07-23T09:55:02;4.20;;;2.80;;
18576;SDS011;9418;52.694;13.294;2022-07-23T09:57:32;3.20;;;2.80;;
18576;SDS011;9418;52.694;13.294;2022-07-23T10:00:00;4.23;;;3.20;;
18576;SDS011;9418;52.694;13.294;2022-07-23T10:02:29;3.83;;;3.17;;
18576;SDS011;9418;52.694;13.294;2022-07-23T10:05:00;9.13;;;3.40;;
18576;SDS011;9418;52.694;13.294;2022-07-23T10:07:28;5.90;;;4.27;;
18576;SDS011;9418;52.694;13.294;2022-07-23T10:09:58;7.83;;;3.33;;
18576;SDS011;9418;52.694;13.294;2022-07-23T10:12:26;8.00;;;3.13;;
18576;SDS011;9418;52.694;13.294;2022-07-23T10:15:07;3.77;;;3.00;;
18576;SDS011;9418;52.694;13.294;2022-07-23T10:17:34;4.73;;;2.93;;
18576;SDS011;9418;52.694;13.294;2022-07-23T10:20:01;6.40;;;2.83;;
18576;SDS011;9418;52.694;13.294;2022-07-23T10:22:29;5.43;;;3.20;;
18576;SDS011;9418;52.694;13.294;2022-07-23T10:25:03;6.10;;;3.17;;
18576;SDS011;9418;52.694;13.294;2022-07-23T10:27:39;4.20;;;2.83;;
18576;SDS011;9418;52.694;13.294;2022-07-23T10:30:14;4.83;;;2.90;;
18576;SDS011;9418;52.694;13.294;2022-07-23T10:32:49;9.43;;;3.00;;
18576;SDS011;9418;52.694;13.294;2022-07-23T10:35:24;3.47;;;3.17;;
18576;SDS011;9418;52.694;13.294;2022-07-23T10:37:56;4.17;;;3.23;;
18576;SDS011;9418;52.694;13.294;2022-07-23T10:40:33;3.53;;;2.80;;
18576;SDS011;9418;52.694;13.294;2022-07-23T10:42:59;3.80;;;3.00;;
18576;SDS011;9418;52.694;13.294;2022-07-23T10:45:29;6.67;;;3.00;;
18576;SDS011;9418;52.694;13.294;2022-07-23T10:48:11;4.47;;;2.83;;
18576;SDS011;9418;52.694;13.294;2022-07-23T10:50:40;3.93;;;3.10;;
18576;SDS011;9418;52.694;13.294;2022-07-23T10:53:08;8.43;;;3.00;;
18576;SDS011;9418;52.694;13.294;2022-07-23T10:55:50;6.23;;;3.30;;
18576;SDS011;9418;52.694;13.294;2022-07-23T11:01:32;6.83;;;2.77;;
18576;SDS011;9418;52.694;13.294;2022-07-23T11:04:01;5.70;;;2.73;;
18576;SDS011;9418;52.694;13.294;2022-07-23T11:09:38;2.83;;;2.57;;
18576;SDS011;9418;52.694;13.294;2022-07-23T11:15:00;7.27;;;3.17;;
18576;SDS011;9418;52.694;13.294;2022-07-23T11:17:31;3.63;;;2.27;;
18576;SDS011;9418;52.694;13.294;2022-07-23T11:20:12;5.50;;;2.73;;
18576;SDS011;9418;52.694;13.294;2022-07-23T11:22:46;9.60;;;3.13;;
18576;SDS011;9418;52.694;13.294;2022-07-23T11:25:30;14.63;;;2.63;;
18576;SDS011;9418;52.694;13.294;2022-07-23T11:28:09;5.27;;;2.33;;
18576;SDS011;9418;52.694;13.294;2022-07-23T11:30:38;10.90;;;2.40;;
18576;SDS011;9418;52.694;13.294;2022-07-23T11:33:17;4.07;;;2.47;;
18576;SDS011;9418;52.694;13.294;2022-07-23T11:35:46;3.50;;;2.27;;
18576;SDS011;9418;52.694;13.294;2022-07-23T11:38:16;5.57;;;2.60;;
18576;SDS011;9418;52.694;13.294;2022-07-23T11:40:44;5.37;;;3.20;;
18576;SDS011;9418;52.694;13.294;2022-07-23T11:43:12;9.27;;;3.00;;
18576;SDS011;9418;52.694;13.294;2022-07-23T11:45:40;6.50;;;3.33;;
18576;SDS011;9418;52.694;13.294;2022-07-23T11:48:09;3.77;;;3.13;;
18576;SDS011;9418;52.694;13.294;2022-07-23T11:50:43;6.10;;;2.70;;
18576;SDS011;9418;52.694;13.294;2022-07-23T11:53:09;2.60;;;2.40;;
18576;SDS011;9418;52.694;13.294;2022-07-23T11:55:36;6.43;;;2.83;;
18576;SDS011;9418;52.694;13.294;2022-07-23T11:58:04;3.77;;;2.20;;
18576;SDS011;9418;52.694;13.294;2022-07-23T12:00:32;4.30;;;2.60;;
18576;SDS011;9418;52.694;13.294;2022-07-23T12:03:00;3.83;;;2.13;;
18576;SDS011;9418;52.694;13.294;2022-07-23T12:05:29;2.70;;;2.50;;
18576;SDS011;9418;52.694;13.294;2022-07-23T12:07:59;6.17;;;2.57;;
18576;SDS011;9418;52.694;13.294;2022-07-23T12:10:27;7.70;;;2.33;;
18576;SDS011;9418;52.694;13.294;2022-07-23T12:12:56;8.83;;;2.50;;
18576;SDS011;9418;52.694;13.294;2022-07-23T12:15:25;6.23;;;2.40;;
18576;SDS011;9418;52.694;13.294;2022-07-23T12:17:54;2.60;;;2.00;;
18576;SDS011;9418;52.694;13.294;2022-07-23T12:20:22;4.37;;;2.00;;
18576;SDS011;9418;52.694;13.294;2022-07-23T12:22:51;5.20;;;2.37;;
18576;SDS011;9418;52.694;13.294;2022-07-23T12:25:21;2.87;;;2.10;;
18576;SDS011;9418;52.694;13.294;2022-07-23T12:27:57;2.30;;;2.10;;
18576;SDS011;9418;52.694;13.294;2022-07-23T12:30:27;2.90;;;2.10;;
18576;SDS011;9418;52.694;13.294;2022-07-23T12:32:55;3.40;;;2.70;;
18576;SDS011;9418;52.694;13.294;2022-07-23T12:35:28;3.70;;;2.80;;
18576;SDS011;9418;52.694;13.294;2022-07-23T12:37:59;2.57;;;2.37;;
18576;SDS011;9418;52.694;13.294;2022-07-23T12:40:29;7.97;;;3.00;;
18576;SDS011;9418;52.694;13.294;2022-07-23T12:42:57;4.33;;;2.70;;
18576;SDS011;9418;52.694;13.294;2022-07-23T12:45:26;10.60;;;2.27;;
18576;SDS011;9418;52.694;13.294;2022-07-23T12:47:59;4.63;;;2.10;;
18576;SDS011;9418;52.694;13.294;2022-07-23T12:50:36;3.20;;;2.13;;
18576;SDS011;9418;52.694;13.294;2022-07-23T12:53:07;5.47;;;1.90;;
18576;SDS011;9418;52.694;13.294;2022-07-23T12:55:37;2.60;;;2.13;;
18576;SDS011;9418;52.694;13.294;2022-07-23T12:58:05;3.87;;;2.73;;
18576;SDS011;9418;52.694;13.294;2022-07-23T13:03:23;8.73;;;2.53;;
18576;SDS011;9418;52.694;13.294;2022-07-23T13:05:52;5.80;;;2.00;;
18576;SDS011;9418;52.694;13.294;2022-07-23T13:08:18;2.60;;;1.80;;
18576;SDS011;9418;52.694;13.294;2022-07-23T13:10:47;2.03;;;1.70;;
18576;SDS011;9418;52.694;13.294;2022-07-23T13:13:16;3.43;;;1.77;;
18576;SDS011;9418;52.694;13.294;2022-07-23T13:15:43;2.47;;;2.27;;
18576;SDS011;9418;52.694;13.294;2022-07-23T13:18:09;4.70;;;2.50;;
18576;SDS011;9418;52.694;13.294;2022-07-23T13:20:36;11.73;;;1.83;;
18576;SDS011;9418;52.694;13.294;2022-07-23T13:23:04;2.23;;;1.57;;
18576;SDS011;9418;52.694;13.294;2022-07-23T13:25:32;5.20;;;1.70;;
18576;SDS011;9418;52.694;13.294;2022-07-23T13:28:00;4.33;;;1.97;;
18576;SDS011;9418;52.694;13.294;2022-07-23T13:30:27;3.47;;;2.07;;
18576;SDS011;9418;52.694;13.294;2022-07-23T13:32:53;3.47;;;1.67;;
18576;SDS011;9418;52.694;13.294;2022-07-23T13:35:20;3.93;;;1.23;;
18576;SDS011;9418;52.694;13.294;2022-07-23T13:37:47;2.70;;;1.57;;
18576;SDS011;9418;52.694;13.294;2022-07-23T13:40:13;3.17;;;1.60;;
18576;SDS011;9418;52.694;13.294;2022-07-23T13:42:40;2.07;;;1.70;;
18576;SDS011;9418;52.694;13.294;2022-07-23T13:45:08;1.20;;;1.20;;
18576;SDS011;9418;52.694;13.294;2022-07-23T13:47:35;2.13;;;1.63;;
18576;SDS011;9418;52.694;13.294;2022-07-23T13:50:02;9.53;;;2.33;;
18576;SDS011;9418;52.694;13.294;2022-07-23T13:52:30;1.47;;;1.37;;
18576;SDS011;9418;52.694;13.294;2022-07-23T13:54:58;2.20;;;2.00;;
18576;SDS011;9418;52.694;13.294;2022-07-23T13:57:25;3.90;;;2.10;;
18576;SDS011;9418;52.694;13.294;2022-07-23T13:59:51;1.43;;;1.27;;
18576;SDS011;9418;52.694;13.294;2022-07-23T14:02:19;3.53;;;1.63;;
18576;SDS011;9418;52.694;13.294;2022-07-23T14:04:46;2.30;;;1.60;;
18576;SDS011;9418;52.694;13.294;2022-07-23T14:07:13;1.60;;;1.50;;
18576;SDS011;9418;52.694;13.294;2022-07-23T14:09:40;5.50;;;1.87;;
18576;SDS011;9418;52.694;13.294;2022-07-23T14:12:07;1.60;;;1.50;;
18576;SDS011;9418;52.694;13.294;2022-07-23T14:14:34;1.60;;;1.43;;
18576;SDS011;9418;52.694;13.294;2022-07-23T14:17:01;4.23;;;1.60;;
18576;SDS011;9418;52.694;13.294;2022-07-23T14:19:29;2.80;;;1.50;;
18576;SDS011;9418;52.694;13.294;2022-07-23T14:21:56;1.77;;;1.40;;
18576;SDS011;9418;52.694;13.294;2022-07-23T14:24:22;1.60;;;1.20;;
18576;SDS011;9418;52.694;13.294;2022-07-23T14:26:49;4.53;;;1.33;;
18576;SDS011;9418;52.694;13.294;2022-07-23T14:29:16;2.50;;;1.20;;
18576;SDS011;9418;52.694;13.294;2022-07-23T14:31:42;1.57;;;1.43;;
18576;SDS011;9418;52.694;13.294;2022-07-23T14:34:09;1.23;;;1.23;;
18576;SDS011;9418;52.694;13.294;2022-07-23T14:36:38;1.30;;;1.20;;
18576;SDS011;9418;52.694;13.294;2022-07-23T14:39:05;2.47;;;1.30;;
18576;SDS011;9418;52.694;13.294;2022-07-23T14:41:33;1.93;;;1.60;;
18576;SDS011;9418;52.694;13.294;2022-07-23T14:44:00;3.00;;;1.03;;
18576;SDS011;9418;52.694;13.294;2022-07-23T14:46:27;4.30;;;1.60;;
18576;SDS011;9418;52.694;13.294;2022-07-23T14:48:54;1.23;;;1.13;;
18576;SDS011;9418;52.694;13.294;2022-07-23T14:51:20;3.53;;;1.33;;
18576;SDS011;9418;52.694;13.294;2022-07-23T14:53:48;2.33;;;1.13;;
18576;SDS011;9418;52.694;13.294;2022-07-23T14:56:15;3.27;;;1.30;;
18576;SDS011;9418;52.694;13.294;2022-07-23T14:58:42;2.33;;;1.10;;
18576;SDS011;9418;52.694;13.294;2022-07-23T15:01:08;2.73;;;1.57;;
18576;SDS011;9418;52.694;13.294;2022-07-23T15:03:35;4.30;;;1.13;;